sensor_id;sensor_type;location;lat;lon;timestamp;pressure;altitude;pressure_sealevel;temperature;humidity
65897;BME280;52677;50.898;10.854;2023-04-26T00:00:16;98525.69;;;3.61;98.99
65897;BME280;52677;50.898;10.854;2023-04-26T00:02:16;98533.22;;;3.64;98.61
65897;BME280;52677;50.898;10.854;2023-04-26T00:04:17;98526.50;;;3.61;98.81
65897;BME280;52677;50.898;10.854;2023-04-26T00:06:17;98531.16;;;3.61;98.64
65897;BME280;52677;50.898;10.854;2023-04-26T00:08:18;98530.69;;;3.59;99.52
65897;BME280;52677;50.898;10.854;2023-04-26T00:10:18;98530.41;;;3.52;99.33
65897;BME280;52677;50.898;10.854;2023-04-26T00:12:19;98528.19;;;3.45;100.00
65897;BME280;52677;50.898;10.854;2023-04-26T00:14:19;98537.41;;;3.41;100.00
65897;BME280;52677;50.898;10.854;2023-04-26T00:16:20;98533.69;;;3.36;100.00
65897;BME280;52677;50.898;10.854;2023-04-26T00:18:20;98540.97;;;3.32;100.00
65897;BME280;52677;50.898;10.854;2023-04-26T00:20:20;98538.53;;;3.31;100.00
65897;BME280;52677;50.898;10.854;2023-04-26T00:22:21;98532.94;;;3.27;100.00
65897;BME280;52677;50.898;10.854;2023-04-26T00:24:21;98544.22;;;3.26;100.00
65897;BME280;52677;50.898;10.854;2023-04-26T00:26:22;98535.53;;;3.24;100.00
65897;BME280;52677;50.898;10.854;2023-04-26T00:28:22;98538.28;;;3.24;100.00
65897;BME280;52677;50.898;10.854;2023-04-26T00:30:22;98542.63;;;3.25;100.00
65897;BME280;52677;50.898;10.854;2023-04-26T00:32:23;98550.34;;;3.23;100.00
65897;BME280;52677;50.898;10.854;2023-04-26T00:34:23;98549.38;;;3.19;100.00
65897;BME280;52677;50.898;10.854;2023-04-26T00:36:23;98549.38;;;3.19;100.00
65897;BME280;52677;50.898;10.854;2023-04-26T00:38:24;98549.41;;;3.10;100.00
65897;BME280;52677;50.898;10.854;2023-04-26T00:40:24;98556.03;;;3.09;100.00
65897;BME280;52677;50.898;10.854;2023-04-26T00:42:26;98556.31;;;3.16;100.00
65897;BME280;52677;50.898;10.854;2023-04-26T00:44:26;98553.75;;;3.11;100.00
65897;BME280;52677;50.898;10.854;2023-04-26T00:46:26;98548.78;;;3.04;100.00
65897;BME280;52677;50.898;10.854;2023-04-26T00:48:29;98553.44;;;3.04;100.00
65897;BME280;52677;50.898;10.854;2023-04-26T00:50:30;98545.44;;;2.99;100.00
65897;BME280;52677;50.898;10.854;2023-04-26T00:52:30;98548.97;;;2.99;100.00
65897;BME280;52677;50.898;10.854;2023-04-26T00:54:31;98544.94;;;2.97;100.00
65897;BME280;52677;50.898;10.854;2023-04-26T00:56:31;98547.53;;;2.93;100.00
65897;BME280;52677;50.898;10.854;2023-04-26T00:58:32;98551.53;;;2.96;100.00
65897;BME280;52677;50.898;10.854;2023-04-26T01:00:32;98544.94;;;2.97;100.00
65897;BME280;52677;50.898;10.854;2023-04-26T01:02:33;98549.94;;;2.95;100.00
65897;BME280;52677;50.898;10.854;2023-04-26T01:04:33;98550.13;;;2.90;100.00
65897;BME280;52677;50.898;10.854;2023-04-26T01:06:34;98551.44;;;2.84;100.00
65897;BME280;52677;50.898;10.854;2023-04-26T01:08:37;98546.13;;;2.78;100.00
65897;BME280;52677;50.898;10.854;2023-04-26T01:10:38;98548.22;;;2.73;100.00
65897;BME280;52677;50.898;10.854;2023-04-26T01:12:39;98547.59;;;2.67;100.00
65897;BME280;52677;50.898;10.854;2023-04-26T01:14:39;98553.69;;;2.64;100.00
65897;BME280;52677;50.898;10.854;2023-04-26T01:16:40;98543.75;;;2.60;100.00
65897;BME280;52677;50.898;10.854;2023-04-26T01:18:40;98556.16;;;2.57;100.00
65897;BME280;52677;50.898;10.854;2023-04-26T01:20:42;98548.91;;;2.52;100.00
65897;BME280;52677;50.898;10.854;2023-04-26T01:22:42;98554.69;;;2.51;100.00
65897;BME280;52677;50.898;10.854;2023-04-26T01:24:44;98554.06;;;2.45;100.00
65897;BME280;52677;50.898;10.854;2023-04-26T01:26:46;98551.97;;;2.42;100.00
65897;BME280;52677;50.898;10.854;2023-04-26T01:28:46;98546.34;;;2.39;100.00
65897;BME280;52677;50.898;10.854;2023-04-26T01:30:48;98544.75;;;2.38;100.00
65897;BME280;52677;50.898;10.854;2023-04-26T01:32:49;98543.47;;;2.35;100.00
65897;BME280;52677;50.898;10.854;2023-04-26T01:34:50;98548.59;;;2.37;100.00
65897;BME280;52677;50.898;10.854;2023-04-26T01:36:50;98546.66;;;2.37;100.00
65897;BME280;52677;50.898;10.854;2023-04-26T01:38:51;98548.28;;;2.38;100.00
65897;BME280;52677;50.898;10.854;2023-04-26T01:40:51;98558.06;;;2.39;100.00
65897;BME280;52677;50.898;10.854;2023-04-26T01:42:51;98556.78;;;2.37;100.00
65897;BME280;52677;50.898;10.854;2023-04-26T01:44:52;98553.72;;;2.38;100.00
65897;BME280;52677;50.898;10.854;2023-04-26T01:46:52;98550.06;;;2.34;100.00
65897;BME280;52677;50.898;10.854;2023-04-26T01:48:52;98557.59;;;2.37;100.00
65897;BME280;52677;50.898;10.854;2023-04-26T01:50:53;98557.28;;;2.30;100.00
65897;BME280;52677;50.898;10.854;2023-04-26T01:52:53;98555.66;;;2.29;100.00
65897;BME280;52677;50.898;10.854;2023-04-26T01:54:54;98560.97;;;2.25;100.00
65897;BME280;52677;50.898;10.854;2023-04-26T01:56:54;98552.94;;;2.20;100.00
65897;BME280;52677;50.898;10.854;2023-04-26T01:58:54;98554.41;;;2.27;100.00
65897;BME280;52677;50.898;10.854;2023-04-26T02:00:56;98551.34;;;2.28;100.00
65897;BME280;52677;50.898;10.854;2023-04-26T02:02:56;98550.06;;;2.25;100.00
65897;BME280;52677;50.898;10.854;2023-04-26T02:04:57;98552.31;;;2.32;100.00
65897;BME280;52677;50.898;10.854;2023-04-26T02:06:57;98553.91;;;2.33;100.00
65897;BME280;52677;50.898;10.854;2023-04-26T02:08:57;98550.06;;;2.25;100.00
65897;BME280;52677;50.898;10.854;2023-04-26T02:10:58;98553.91;;;2.24;100.00
65897;BME280;52677;50.898;10.854;2023-04-26T02:12:58;98547.31;;;2.17;100.00
65897;BME280;52677;50.898;10.854;2023-04-26T02:14:58;98550.88;;;2.17;100.00
65897;BME280;52677;50.898;10.854;2023-04-26T02:16:59;98556.78;;;2.19;100.00
65897;BME280;52677;50.898;10.854;2023-04-26T02:19:00;98551.34;;;2.19;100.00
65897;BME280;52677;50.898;10.854;2023-04-26T02:21:01;98555.66;;;2.20;100.00
65897;BME280;52677;50.898;10.854;2023-04-26T02:23:01;98554.88;;;2.20;100.00
65897;BME280;52677;50.898;10.854;2023-04-26T02:25:02;98556.31;;;2.17;100.00
65897;BME280;52677;50.898;10.854;2023-04-26T02:27:02;98554.41;;;2.18;100.00
65897;BME280;52677;50.898;10.854;2023-04-26T02:29:04;98551.66;;;2.18;100.00
65897;BME280;52677;50.898;10.854;2023-04-26T02:31:04;98555.53;;;2.17;100.00
65897;BME280;52677;50.898;10.854;2023-04-26T02:33:04;98546.53;;;2.16;100.00
65897;BME280;52677;50.898;10.854;2023-04-26T02:35:05;98546.03;;;2.14;100.00
65897;BME280;52677;50.898;10.854;2023-04-26T02:37:05;98542.81;;;2.12;100.00
65897;BME280;52677;50.898;10.854;2023-04-26T02:39:06;98550.53;;;2.10;100.00
65897;BME280;52677;50.898;10.854;2023-04-26T02:41:06;98553.25;;;2.02;100.00
65897;BME280;52677;50.898;10.854;2023-04-26T02:43:07;98550.53;;;1.93;100.00
65897;BME280;52677;50.898;10.854;2023-04-26T02:45:09;98544.59;;;1.91;100.00
65897;BME280;52677;50.898;10.854;2023-04-26T02:47:09;98550.50;;;1.84;100.00
65897;BME280;52677;50.898;10.854;2023-04-26T02:49:10;98548.72;;;1.80;100.00
65897;BME280;52677;50.898;10.854;2023-04-26T02:51:10;98548.09;;;1.74;100.00
65897;BME280;52677;50.898;10.854;2023-04-26T02:53:10;98542.13;;;1.63;100.00
65897;BME280;52677;50.898;10.854;2023-04-26T02:55:11;98539.84;;;1.57;100.00
65897;BME280;52677;50.898;10.854;2023-04-26T02:57:12;98548.53;;;1.50;100.00
65897;BME280;52677;50.898;10.854;2023-04-26T02:59:12;98541.75;;;1.48;100.00
65897;BME280;52677;50.898;10.854;2023-04-26T03:01:12;98545.59;;;1.47;100.00
65897;BME280;52677;50.898;10.854;2023-04-26T03:03:14;98544.66;;;1.43;100.00
65897;BME280;52677;50.898;10.854;2023-04-26T03:05:14;98551.03;;;1.38;100.00
65897;BME280;52677;50.898;10.854;2023-04-26T03:07:15;98551.84;;;1.38;100.00
65897;BME280;52677;50.898;10.854;2023-04-26T03:09:16;98554.75;;;1.42;100.00
65897;BME280;52677;50.898;10.854;2023-04-26T03:11:16;98551.69;;;1.44;100.00
65897;BME280;52677;50.898;10.854;2023-04-26T03:13:17;98546.38;;;1.38;100.00
65897;BME280;52677;50.898;10.854;2023-04-26T03:15:17;98542.19;;;1.32;100.00
65897;BME280;52677;50.898;10.854;2023-04-26T03:17:17;98555.00;;;1.32;100.00
65897;BME280;52677;50.898;10.854;2023-04-26T03:19:18;98552.94;;;1.29;100.00
65897;BME280;52677;50.898;10.854;2023-04-26T03:21:19;98554.03;;;1.28;100.00
65897;BME280;52677;50.898;10.854;2023-04-26T03:23:19;98559.00;;;1.26;100.00
65897;BME280;52677;50.898;10.854;2023-04-26T03:25:23;98550.84;;;1.26;100.00
65897;BME280;52677;50.898;10.854;2023-04-26T03:27:23;98558.69;;;1.27;100.00
65897;BME280;52677;50.898;10.854;2023-04-26T03:29:23;98563.66;;;1.25;100.00
65897;BME280;52677;50.898;10.854;2023-04-26T03:31:24;98559.78;;;1.18;100.00
65897;BME280;52677;50.898;10.854;2023-04-26T03:33:24;98564.25;;;1.13;100.00
65897;BME280;52677;50.898;10.854;2023-04-26T03:35:24;98568.72;;;1.09;100.00
65897;BME280;52677;50.898;10.854;2023-04-26T03:37:25;98567.25;;;1.03;100.00
65897;BME280;52677;50.898;10.854;2023-04-26T03:39:25;98566.13;;;1.04;100.00
65897;BME280;52677;50.898;10.854;2023-04-26T03:41:25;98575.41;;;1.03;100.00
65897;BME280;52677;50.898;10.854;2023-04-26T03:43:26;98560.94;;;0.94;100.00
65897;BME280;52677;50.898;10.854;2023-04-26T03:45:26;98571.84;;;0.94;100.00
65897;BME280;52677;50.898;10.854;2023-04-26T03:47:26;98571.16;;;0.89;100.00
65897;BME280;52677;50.898;10.854;2023-04-26T03:49:27;98573.56;;;0.90;100.00
65897;BME280;52677;50.898;10.854;2023-04-26T03:51:27;98581.75;;;0.90;100.00
65897;BME280;52677;50.898;10.854;2023-04-26T03:53:27;98588.47;;;0.84;100.00
65897;BME280;52677;50.898;10.854;2023-04-26T03:55:28;98577.84;;;0.82;100.00
65897;BME280;52677;50.898;10.854;2023-04-26T03:57:28;98584.25;;;0.78;100.00
65897;BME280;52677;50.898;10.854;2023-04-26T03:59:28;98582.75;;;0.72;100.00
65897;BME280;52677;50.898;10.854;2023-04-26T04:01:29;98577.94;;;0.69;100.00
65897;BME280;52677;50.898;10.854;2023-04-26T04:03:29;98585.50;;;0.72;100.00
65897;BME280;52677;50.898;10.854;2023-04-26T04:05:30;98583.56;;;0.72;100.00
65897;BME280;52677;50.898;10.854;2023-04-26T04:07:30;98591.41;;;0.74;100.00
65897;BME280;52677;50.898;10.854;2023-04-26T04:09:31;98584.88;;;0.75;100.00
65897;BME280;52677;50.898;10.854;2023-04-26T04:11:32;98582.34;;;0.78;100.00
65897;BME280;52677;50.898;10.854;2023-04-26T04:13:32;98587.28;;;0.76;100.00
65897;BME280;52677;50.898;10.854;2023-04-26T04:15:33;98579.59;;;0.78;100.00
65897;BME280;52677;50.898;10.854;2023-04-26T04:17:33;98580.72;;;0.77;100.00
65897;BME280;52677;50.898;10.854;2023-04-26T04:19:33;98580.53;;;0.74;100.00
65897;BME280;52677;50.898;10.854;2023-04-26T04:21:33;98584.38;;;0.73;100.00
65897;BME280;52677;50.898;10.854;2023-04-26T04:23:34;98581.16;;;0.71;100.00
65897;BME280;52677;50.898;10.854;2023-04-26T04:25:34;98585.63;;;0.67;100.00
65897;BME280;52677;50.898;10.854;2023-04-26T04:27:36;98585.91;;;0.65;100.00
65897;BME280;52677;50.898;10.854;2023-04-26T04:29:36;98590.25;;;0.66;100.00
65897;BME280;52677;50.898;10.854;2023-04-26T04:31:37;98590.88;;;0.63;100.00
65897;BME280;52677;50.898;10.854;2023-04-26T04:33:39;98590.38;;;0.61;100.00
65897;BME280;52677;50.898;10.854;2023-04-26T04:35:40;98583.34;;;0.60;100.00
65897;BME280;52677;50.898;10.854;2023-04-26T04:37:40;98596.31;;;0.63;100.00
65897;BME280;52677;50.898;10.854;2023-04-26T04:39:41;98591.19;;;0.62;100.00
65897;BME280;52677;50.898;10.854;2023-04-26T04:41:41;98584.47;;;0.59;100.00
65897;BME280;52677;50.898;10.854;2023-04-26T04:43:47;98593.13;;;0.61;100.00
65897;BME280;52677;50.898;10.854;2023-04-26T04:45:47;98595.84;;;0.61;100.00
65897;BME280;52677;50.898;10.854;2023-04-26T04:47:48;98602.88;;;0.62;100.00
65897;BME280;52677;50.898;10.854;2023-04-26T04:49:48;98598.25;;;0.63;100.00
65897;BME280;52677;50.898;10.854;2023-04-26T04:51:49;98596.22;;;0.68;100.00
65897;BME280;52677;50.898;10.854;2023-04-26T04:53:50;98597.63;;;0.66;100.00
65897;BME280;52677;50.898;10.854;2023-04-26T04:55:50;98594.88;;;0.66;100.00
65897;BME280;52677;50.898;10.854;2023-04-26T04:57:51;98601.44;;;0.65;100.00
65897;BME280;52677;50.898;10.854;2023-04-26T04:59:51;98605.66;;;0.71;100.00
65897;BME280;52677;50.898;10.854;2023-04-26T05:01:52;98601.81;;;0.72;100.00
65897;BME280;52677;50.898;10.854;2023-04-26T05:03:52;98606.78;;;0.70;100.00
65897;BME280;52677;50.898;10.854;2023-04-26T05:05:52;98604.56;;;0.72;100.00
65897;BME280;52677;50.898;10.854;2023-04-26T05:07:53;98604.44;;;0.77;100.00
65897;BME280;52677;50.898;10.854;2023-04-26T05:09:53;98609.75;;;0.82;100.00
65897;BME280;52677;50.898;10.854;2023-04-26T05:11:53;98601.13;;;0.89;100.00
65897;BME280;52677;50.898;10.854;2023-04-26T05:13:54;98615.28;;;0.99;100.00
65897;BME280;52677;50.898;10.854;2023-04-26T05:15:54;98607.00;;;1.04;100.00
65897;BME280;52677;50.898;10.854;2023-04-26T05:17:54;98613.94;;;1.10;100.00
65897;BME280;52677;50.898;10.854;2023-04-26T05:19:55;98624.38;;;1.17;100.00
65897;BME280;52677;50.898;10.854;2023-04-26T05:21:55;98613.00;;;1.24;100.00
65897;BME280;52677;50.898;10.854;2023-04-26T05:23:56;98619.16;;;1.29;100.00
65897;BME280;52677;50.898;10.854;2023-04-26T05:26:01;98626.06;;;1.35;100.00
65897;BME280;52677;50.898;10.854;2023-04-26T05:28:01;98621.47;;;1.45;100.00
65897;BME280;52677;50.898;10.854;2023-04-26T05:30:06;98619.91;;;1.52;100.00
65897;BME280;52677;50.898;10.854;2023-04-26T05:32:07;98629.06;;;1.65;100.00
65897;BME280;52677;50.898;10.854;2023-04-26T05:34:07;98626.69;;;1.72;100.00
65897;BME280;52677;50.898;10.854;2023-04-26T05:36:08;98626.72;;;1.81;100.00
65897;BME280;52677;50.898;10.854;2023-04-26T05:38:08;98638.16;;;1.91;100.00
65897;BME280;52677;50.898;10.854;2023-04-26T05:40:09;98630.28;;;1.98;100.00
65897;BME280;52677;50.898;10.854;2023-04-26T05:42:11;98635.59;;;2.04;100.00
65897;BME280;52677;50.898;10.854;2023-04-26T05:44:12;98632.28;;;2.15;100.00
65897;BME280;52677;50.898;10.854;2023-04-26T05:46:13;98631.47;;;2.23;100.00
65897;BME280;52677;50.898;10.854;2023-04-26T05:48:13;98634.69;;;2.25;100.00
65897;BME280;52677;50.898;10.854;2023-04-26T05:50:13;98642.09;;;2.25;100.00
65897;BME280;52677;50.898;10.854;2023-04-26T05:52:14;98650.09;;;2.30;100.00
65897;BME280;52677;50.898;10.854;2023-04-26T05:54:14;98649.16;;;2.35;100.00
65897;BME280;52677;50.898;10.854;2023-04-26T05:56:15;98646.41;;;2.35;100.00
65897;BME280;52677;50.898;10.854;2023-04-26T05:58:15;98649.81;;;2.40;100.00
65897;BME280;52677;50.898;10.854;2023-04-26T06:00:16;98647.88;;;2.58;100.00
65897;BME280;52677;50.898;10.854;2023-04-26T06:02:18;98658.50;;;2.68;100.00
65897;BME280;52677;50.898;10.854;2023-04-26T06:04:18;98652.22;;;2.76;100.00
65897;BME280;52677;50.898;10.854;2023-04-26T06:06:19;98650.28;;;2.86;100.00
65897;BME280;52677;50.898;10.854;2023-04-26T06:08:19;98650.75;;;2.88;100.00
65897;BME280;52677;50.898;10.854;2023-04-26T06:10:20;98660.88;;;2.87;100.00
65897;BME280;52677;50.898;10.854;2023-04-26T06:12:20;98648.19;;;2.91;100.00
65897;BME280;52677;50.898;10.854;2023-04-26T06:14:20;98649.78;;;3.01;100.00
65897;BME280;52677;50.898;10.854;2023-04-26T06:16:21;98651.50;;;3.14;100.00
65897;BME280;52677;50.898;10.854;2023-04-26T06:18:21;98661.63;;;3.22;100.00
65897;BME280;52677;50.898;10.854;2023-04-26T06:20:22;98666.28;;;3.30;100.00
65897;BME280;52677;50.898;10.854;2023-04-26T06:22:22;98654.72;;;3.33;100.00
65897;BME280;52677;50.898;10.854;2023-04-26T06:24:23;98657.22;;;3.47;100.00
65897;BME280;52677;50.898;10.854;2023-04-26T06:26:25;98660.25;;;3.54;100.00
65897;BME280;52677;50.898;10.854;2023-04-26T06:28:26;98659.63;;;3.57;100.00
65897;BME280;52677;50.898;10.854;2023-04-26T06:30:26;98658.78;;;3.65;100.00
65897;BME280;52677;50.898;10.854;2023-04-26T06:32:27;98663.28;;;3.61;100.00
65897;BME280;52677;50.898;10.854;2023-04-26T06:34:27;98659.59;;;3.66;100.00
65897;BME280;52677;50.898;10.854;2023-04-26T06:36:27;98652.78;;;3.72;100.00
65897;BME280;52677;50.898;10.854;2023-04-26T06:38:28;98662.28;;;3.75;100.00
65897;BME280;52677;50.898;10.854;2023-04-26T06:40:28;98663.19;;;3.49;100.00
65897;BME280;52677;50.898;10.854;2023-04-26T06:42:28;98664.25;;;3.65;100.00
65897;BME280;52677;50.898;10.854;2023-04-26T06:44:29;98663.25;;;3.70;100.00
65897;BME280;52677;50.898;10.854;2023-04-26T06:46:29;98668.56;;;3.75;100.00
65897;BME280;52677;50.898;10.854;2023-04-26T06:48:30;98674.50;;;3.77;100.00
65897;BME280;52677;50.898;10.854;2023-04-26T06:50:30;98663.56;;;3.77;100.00
65897;BME280;52677;50.898;10.854;2023-04-26T06:52:31;98659.50;;;3.83;100.00
65897;BME280;52677;50.898;10.854;2023-04-26T06:54:31;98662.34;;;3.95;100.00
65897;BME280;52677;50.898;10.854;2023-04-26T06:56:32;98660.19;;;4.10;100.00
65897;BME280;52677;50.898;10.854;2023-04-26T06:58:32;98662.53;;;4.20;100.00
65897;BME280;52677;50.898;10.854;2023-04-26T07:00:32;98669.44;;;4.26;100.00
65897;BME280;52677;50.898;10.854;2023-04-26T07:02:33;98661.88;;;4.23;98.41
65897;BME280;52677;50.898;10.854;2023-04-26T07:04:33;98672.03;;;4.22;98.11
65897;BME280;52677;50.898;10.854;2023-04-26T07:06:33;98662.53;;;4.20;99.53
65897;BME280;52677;50.898;10.854;2023-04-26T07:08:33;98664.69;;;4.14;98.28
65897;BME280;52677;50.898;10.854;2023-04-26T07:10:34;98668.53;;;4.13;97.08
65897;BME280;52677;50.898;10.854;2023-04-26T07:12:34;98671.38;;;4.26;96.60
65897;BME280;52677;50.898;10.854;2023-04-26T07:14:35;98671.31;;;4.34;96.54
65897;BME280;52677;50.898;10.854;2023-04-26T07:16:37;98661.56;;;4.45;94.96
65897;BME280;52677;50.898;10.854;2023-04-26T07:18:41;98665.84;;;4.34;95.38
65897;BME280;52677;50.898;10.854;2023-04-26T07:20:41;98676.97;;;4.29;97.02
65897;BME280;52677;50.898;10.854;2023-04-26T07:22:42;98675.75;;;4.18;97.23
65897;BME280;52677;50.898;10.854;2023-04-26T07:24:42;98675.09;;;4.21;95.29
65897;BME280;52677;50.898;10.854;2023-04-26T07:26:42;98666.56;;;4.22;94.95
65897;BME280;52677;50.898;10.854;2023-04-26T07:28:43;98662.34;;;4.25;94.91
65897;BME280;52677;50.898;10.854;2023-04-26T07:30:43;98667.22;;;4.19;94.75
65897;BME280;52677;50.898;10.854;2023-04-26T07:32:43;98669.56;;;4.30;93.90
65897;BME280;52677;50.898;10.854;2023-04-26T07:34:44;98666.22;;;4.45;94.27
65897;BME280;52677;50.898;10.854;2023-04-26T07:36:44;98652.81;;;4.73;94.31
65897;BME280;52677;50.898;10.854;2023-04-26T07:38:44;98668.72;;;4.59;95.16
65897;BME280;52677;50.898;10.854;2023-04-26T07:40:44;98658.91;;;4.58;90.85
65897;BME280;52677;50.898;10.854;2023-04-26T07:42:45;98663.78;;;4.73;93.86
65897;BME280;52677;50.898;10.854;2023-04-26T07:44:47;98665.00;;;4.96;92.57
65897;BME280;52677;50.898;10.854;2023-04-26T07:46:47;98661.69;;;4.91;91.97
65897;BME280;52677;50.898;10.854;2023-04-26T07:48:47;98669.72;;;4.75;90.64
65897;BME280;52677;50.898;10.854;2023-04-26T07:50:48;98665.59;;;4.90;89.84
65897;BME280;52677;50.898;10.854;2023-04-26T07:52:48;98670.19;;;4.77;90.43
65897;BME280;52677;50.898;10.854;2023-04-26T07:54:48;98668.13;;;4.74;87.72
65897;BME280;52677;50.898;10.854;2023-04-26T07:56:49;98665.97;;;4.79;86.91
65897;BME280;52677;50.898;10.854;2023-04-26T07:58:49;98670.00;;;4.61;85.79
65897;BME280;52677;50.898;10.854;2023-04-26T08:00:49;98673.34;;;4.67;86.87
65897;BME280;52677;50.898;10.854;2023-04-26T08:02:50;98673.81;;;4.90;88.19
65897;BME280;52677;50.898;10.854;2023-04-26T08:04:51;98677.53;;;5.06;89.85
65897;BME280;52677;50.898;10.854;2023-04-26T08:06:51;98673.09;;;4.81;86.07
65897;BME280;52677;50.898;10.854;2023-04-26T08:08:51;98676.47;;;4.77;86.23
65897;BME280;52677;50.898;10.854;2023-04-26T08:10:53;98683.09;;;4.56;87.81
65897;BME280;52677;50.898;10.854;2023-04-26T08:12:53;98679.34;;;4.60;89.04
65897;BME280;52677;50.898;10.854;2023-04-26T08:14:55;98683.41;;;4.54;90.46
65897;BME280;52677;50.898;10.854;2023-04-26T08:16:55;98685.28;;;4.62;89.02
65897;BME280;52677;50.898;10.854;2023-04-26T08:18:55;98683.91;;;4.56;88.29
65897;BME280;52677;50.898;10.854;2023-04-26T08:21:01;98680.59;;;4.63;87.19
65897;BME280;52677;50.898;10.854;2023-04-26T08:23:02;98684.50;;;4.62;86.43
65897;BME280;52677;50.898;10.854;2023-04-26T08:25:02;98683.56;;;4.58;85.37
65897;BME280;52677;50.898;10.854;2023-04-26T08:27:03;98687.44;;;4.77;82.77
65897;BME280;52677;50.898;10.854;2023-04-26T08:29:04;98677.94;;;4.96;82.96
65897;BME280;52677;50.898;10.854;2023-04-26T08:31:05;98668.19;;;5.19;82.44
65897;BME280;52677;50.898;10.854;2023-04-26T08:33:07;98676.53;;;5.56;83.95
65897;BME280;52677;50.898;10.854;2023-04-26T08:35:08;98670.97;;;5.64;82.38
65897;BME280;52677;50.898;10.854;2023-04-26T08:37:09;98664.13;;;5.38;78.49
65897;BME280;52677;50.898;10.854;2023-04-26T08:39:10;98685.97;;;5.34;79.65
65897;BME280;52677;50.898;10.854;2023-04-26T08:41:12;98678.44;;;5.10;76.76
65897;BME280;52677;50.898;10.854;2023-04-26T08:43:14;98665.69;;;5.14;75.70
65897;BME280;52677;50.898;10.854;2023-04-26T08:45:15;98666.03;;;4.92;76.26
65897;BME280;52677;50.898;10.854;2023-04-26T08:47:20;98677.63;;;5.30;78.59
65897;BME280;52677;50.898;10.854;2023-04-26T08:49:33;98662.69;;;5.52;77.49
65897;BME280;52677;50.898;10.854;2023-04-26T08:51:39;98681.91;;;5.52;80.29
65897;BME280;52677;50.898;10.854;2023-04-26T08:53:40;98675.09;;;5.38;79.56
65897;BME280;52677;50.898;10.854;2023-04-26T08:55:47;98679.66;;;5.21;79.54
65897;BME280;52677;50.898;10.854;2023-04-26T08:57:49;98681.78;;;5.16;79.97
65897;BME280;52677;50.898;10.854;2023-04-26T08:59:50;98680.34;;;4.97;81.98
65897;BME280;52677;50.898;10.854;2023-04-26T09:01:52;98672.00;;;5.27;83.60
65897;BME280;52677;50.898;10.854;2023-04-26T09:03:53;98673.66;;;5.52;83.15
65897;BME280;52677;50.898;10.854;2023-04-26T09:05:54;98675.53;;;5.73;79.84
65897;BME280;52677;50.898;10.854;2023-04-26T09:08:00;98675.91;;;5.83;79.70
65897;BME280;52677;50.898;10.854;2023-04-26T09:10:04;98668.47;;;5.72;78.95
65897;BME280;52677;50.898;10.854;2023-04-26T09:12:05;98677.34;;;5.56;79.63
65897;BME280;52677;50.898;10.854;2023-04-26T09:14:05;98675.84;;;5.59;76.63
65897;BME280;52677;50.898;10.854;2023-04-26T09:16:06;98672.75;;;5.48;74.91
65897;BME280;52677;50.898;10.854;2023-04-26T09:18:20;98669.22;;;5.48;74.54
65897;BME280;52677;50.898;10.854;2023-04-26T09:20:27;98674.13;;;5.54;73.59
65897;BME280;52677;50.898;10.854;2023-04-26T09:24:31;98672.81;;;5.73;75.91
65897;BME280;52677;50.898;10.854;2023-04-26T09:26:45;98667.31;;;5.85;74.67
65897;BME280;52677;50.898;10.854;2023-04-26T09:29:17;98676.09;;;5.78;74.03
65897;BME280;52677;50.898;10.854;2023-04-26T09:31:38;98678.06;;;5.90;76.08
65897;BME280;52677;50.898;10.854;2023-04-26T09:33:56;98673.41;;;6.39;76.19
65897;BME280;52677;50.898;10.854;2023-04-26T09:36:10;98684.41;;;6.27;72.25
65897;BME280;52677;50.898;10.854;2023-04-26T09:38:16;98683.47;;;6.11;72.93
65897;BME280;52677;50.898;10.854;2023-04-26T09:40:17;98676.97;;;6.15;71.73
65897;BME280;52677;50.898;10.854;2023-04-26T09:42:19;98678.22;;;6.18;71.54
65897;BME280;52677;50.898;10.854;2023-04-26T09:44:23;98666.88;;;6.32;69.77
65897;BME280;52677;50.898;10.854;2023-04-26T09:46:23;98678.47;;;6.37;72.47
65897;BME280;52677;50.898;10.854;2023-04-26T09:48:24;98676.28;;;6.31;70.79
65897;BME280;52677;50.898;10.854;2023-04-26T09:50:29;98665.72;;;6.20;70.92
65897;BME280;52677;50.898;10.854;2023-04-26T09:52:30;98678.56;;;5.92;73.32
65897;BME280;52677;50.898;10.854;2023-04-26T09:54:48;98683.84;;;6.09;71.99
65897;BME280;52677;50.898;10.854;2023-04-26T09:56:58;98681.50;;;5.87;71.62
65897;BME280;52677;50.898;10.854;2023-04-26T09:59:00;98679.53;;;5.87;70.74
65897;BME280;52677;50.898;10.854;2023-04-26T10:01:03;98684.25;;;5.87;72.86
65897;BME280;52677;50.898;10.854;2023-04-26T10:03:06;98691.38;;;6.00;73.96
65897;BME280;52677;50.898;10.854;2023-04-26T10:05:07;98688.19;;;5.98;72.30
65897;BME280;52677;50.898;10.854;2023-04-26T10:07:08;98683.38;;;6.07;70.74
65897;BME280;52677;50.898;10.854;2023-04-26T10:09:09;98681.44;;;6.08;72.19
65897;BME280;52677;50.898;10.854;2023-04-26T10:11:10;98682.13;;;6.29;72.64
65897;BME280;52677;50.898;10.854;2023-04-26T10:13:12;98671.22;;;6.33;71.14
65897;BME280;52677;50.898;10.854;2023-04-26T10:15:14;98674.56;;;6.26;70.81
65897;BME280;52677;50.898;10.854;2023-04-26T10:17:15;98678.78;;;6.48;70.24
65897;BME280;52677;50.898;10.854;2023-04-26T10:19:15;98674.63;;;6.66;70.42
65897;BME280;52677;50.898;10.854;2023-04-26T10:21:23;98673.09;;;6.69;72.48
65897;BME280;52677;50.898;10.854;2023-04-26T10:23:26;98676.84;;;6.89;70.02
65897;BME280;52677;50.898;10.854;2023-04-26T10:25:38;98684.38;;;6.64;70.06
65897;BME280;52677;50.898;10.854;2023-04-26T10:32:13;98672.56;;;6.63;69.33
65897;BME280;52677;50.898;10.854;2023-04-26T10:34:18;98676.69;;;6.57;69.64
65897;BME280;52677;50.898;10.854;2023-04-26T10:36:19;98671.28;;;6.73;67.02
65897;BME280;52677;50.898;10.854;2023-04-26T10:38:20;98668.09;;;6.71;67.36
65897;BME280;52677;50.898;10.854;2023-04-26T10:40:25;98657.59;;;6.89;64.36
65897;BME280;52677;50.898;10.854;2023-04-26T10:42:28;98665.00;;;7.00;67.09